ELY371 LLBG-LPPT
Flight info
| Callsign | ELY371 |
|---|---|
| Flight time | 5h 55m |
| Altitude | 34000 |
| Route | SUVAS L53 ANIDE DCT TRL DCT RUTOM DCT CRN/N0451F360 DCT DIRED DCT RUVIP DCT EPIKU DCT GINOX DCT KIFMI DCT ELVOP DCT MUREN/N0448F370 M601 BCN DCT ANTON DCT XIKEN DCT OSLAP DCT SALAS DCT RAMON DCT NEXAS DCT DISVU DCT ADUXO N975 PALIO DCT AKOKI DCT GOTOR DCT TLD DCT NATPA DCT MELON DCT CCS DCT ELVAR DCT UPULO |
| Aircraft | B738/M-SDE2E3FGHIRWXY/LB1 |
Departure
| Time | 2026-05-05 11:09 |
|---|---|
| Airport | Ben Gurion International Airport (LLBG) |
Arrival
| Time | 2026-05-05 17:05 |
|---|---|
| Airport | Lisbon Humberto Delgado Airport (LPPT) |
| Time | Latitude | Longitude | Altitude | Speed | Heading |
|---|---|---|---|---|---|
| 2026-05-05 10:29 | 32.00179 | 34.87336 | 119 ft | 0 kts | 56° |
| 2026-05-05 10:53 | 32.00174 | 34.87327 | 116 ft | 4 kts | 59° |
| 2026-05-05 10:54 | 32.00161 | 34.87300 | 116 ft | 4 kts | 53° |
| 2026-05-05 10:54 | 32.00145 | 34.87285 | 116 ft | 4 kts | 20° |
| 2026-05-05 10:54 | 32.00121 | 34.87284 | 117 ft | 4 kts | 335° |
| 2026-05-05 10:54 | 32.00100 | 34.87296 | 117 ft | 4 kts | 333° |
| 2026-05-05 10:55 | 32.00076 | 34.87310 | 117 ft | 4 kts | 334° |
| 2026-05-05 10:55 | 32.00057 | 34.87322 | 117 ft | 4 kts | 331° |
| 2026-05-05 10:55 | 32.00037 | 34.87341 | 115 ft | 4 kts | 304° |
| 2026-05-05 10:55 | 32.00025 | 34.87362 | 114 ft | 4 kts | 297° |
| 2026-05-05 10:56 | 32.00013 | 34.87390 | 117 ft | 3 kts | 300° |
| 2026-05-05 10:56 | 32.00003 | 34.87412 | 116 ft | 4 kts | 283° |
| 2026-05-05 10:56 | 31.99997 | 34.87440 | 117 ft | 3 kts | 302° |
| 2026-05-05 10:56 | 31.99987 | 34.87467 | 118 ft | 4 kts | 270° |
| 2026-05-05 10:57 | 31.99994 | 34.87493 | 114 ft | 4 kts | 220° |
| 2026-05-05 10:57 | 32.00015 | 34.87509 | 118 ft | 4 kts | 215° |
| 2026-05-05 10:57 | 32.00026 | 34.87518 | 116 ft | 1 kts | 212° |
| 2026-05-05 11:00 | 32.00023 | 34.87516 | 119 ft | 1 kts | 212° |
| 2026-05-05 11:00 | 32.00014 | 34.87509 | 115 ft | 3 kts | 212° |
| 2026-05-05 11:01 | 31.99992 | 34.87498 | 119 ft | 4 kts | 193° |
| 2026-05-05 11:01 | 31.99964 | 34.87513 | 118 ft | 5 kts | 128° |
| 2026-05-05 11:01 | 31.99963 | 34.87558 | 117 ft | 6 kts | 60° |
| 2026-05-05 11:01 | 31.99999 | 34.87594 | 118 ft | 8 kts | 34° |
| 2026-05-05 11:02 | 32.00050 | 34.87633 | 119 ft | 10 kts | 32° |
| 2026-05-05 11:02 | 32.00113 | 34.87679 | 117 ft | 11 kts | 31° |
| 2026-05-05 11:02 | 32.00186 | 34.87729 | 119 ft | 13 kts | 30° |
| 2026-05-05 11:02 | 32.00270 | 34.87790 | 116 ft | 15 kts | 31° |
| 2026-05-05 11:03 | 32.00361 | 34.87854 | 116 ft | 15 kts | 30° |
| 2026-05-05 11:03 | 32.00444 | 34.87914 | 119 ft | 12 kts | 34° |
| 2026-05-05 11:03 | 32.00520 | 34.87954 | 119 ft | 12 kts | 352° |
| 2026-05-05 11:03 | 32.00598 | 34.87928 | 118 ft | 12 kts | 17° |
| 2026-05-05 11:04 | 32.00669 | 34.87975 | 116 ft | 12 kts | 31° |
| 2026-05-05 11:04 | 32.00737 | 34.88024 | 119 ft | 11 kts | 31° |
| 2026-05-05 11:04 | 32.00802 | 34.88072 | 119 ft | 11 kts | 33° |
| 2026-05-05 11:04 | 32.00866 | 34.88120 | 117 ft | 11 kts | 32° |
| 2026-05-05 11:05 | 32.00928 | 34.88165 | 118 ft | 11 kts | 31° |
| 2026-05-05 11:05 | 32.00998 | 34.88216 | 115 ft | 13 kts | 32° |
| 2026-05-05 11:05 | 32.01083 | 34.88277 | 119 ft | 16 kts | 31° |
| 2026-05-05 11:05 | 32.01183 | 34.88347 | 120 ft | 17 kts | 30° |
| 2026-05-05 11:06 | 32.01286 | 34.88432 | 118 ft | 19 kts | 40° |
| 2026-05-05 11:06 | 32.01382 | 34.88553 | 119 ft | 20 kts | 52° |
| 2026-05-05 11:06 | 32.01454 | 34.88694 | 115 ft | 20 kts | 65° |
| 2026-05-05 11:06 | 32.01496 | 34.88844 | 117 ft | 19 kts | 76° |
| 2026-05-05 11:07 | 32.01519 | 34.88995 | 115 ft | 18 kts | 79° |
| 2026-05-05 11:07 | 32.01539 | 34.89109 | 119 ft | 11 kts | 76° |
| 2026-05-05 11:07 | 32.01591 | 34.89161 | 119 ft | 10 kts | 10° |
| 2026-05-05 11:07 | 32.01660 | 34.89150 | 117 ft | 10 kts | 347° |
| 2026-05-05 11:08 | 32.01727 | 34.89133 | 113 ft | 9 kts | 350° |
| 2026-05-05 11:08 | 32.01749 | 34.89109 | 116 ft | 4 kts | 275° |
| 2026-05-05 11:08 | 32.01746 | 34.89093 | 115 ft | 2 kts | 259° |
| 2026-05-05 11:08 | 32.01717 | 34.88913 | 117 ft | 53 kts | 259° |
| 2026-05-05 11:09 | 32.01614 | 34.88226 | 117 ft | 115 kts | 259° |
| 2026-05-05 11:09 | 32.01448 | 34.87114 | 241 ft | 153 kts | 260° |
| 2026-05-05 11:09 | 32.01274 | 34.85876 | 844 ft | 154 kts | 260° |
| 2026-05-05 11:09 | 32.01054 | 34.84631 | 1536 ft | 156 kts | 256° |
| 2026-05-05 11:10 | 32.00795 | 34.83388 | 2257 ft | 156 kts | 256° |
| 2026-05-05 11:10 | 32.00525 | 34.82117 | 2870 ft | 163 kts | 256° |
| 2026-05-05 11:10 | 32.00247 | 34.80805 | 3471 ft | 170 kts | 257° |
| 2026-05-05 11:10 | 31.99943 | 34.79360 | 3755 ft | 192 kts | 256° |
| 2026-05-05 11:11 | 31.99601 | 34.77742 | 3938 ft | 213 kts | 256° |
| 2026-05-05 11:11 | 31.99245 | 34.76022 | 4456 ft | 218 kts | 261° |
| 2026-05-05 11:11 | 31.99327 | 34.74218 | 4901 ft | 232 kts | 283° |
| 2026-05-05 11:11 | 31.99865 | 34.72340 | 5343 ft | 247 kts | 289° |
| 2026-05-05 11:12 | 32.00483 | 34.70449 | 5976 ft | 255 kts | 289° |
| 2026-05-05 11:12 | 32.01113 | 34.68498 | 6770 ft | 254 kts | 288° |
| 2026-05-05 11:12 | 32.01739 | 34.66526 | 7460 ft | 257 kts | 288° |
| 2026-05-05 11:12 | 32.02363 | 34.64537 | 7944 ft | 259 kts | 288° |
| 2026-05-05 11:13 | 32.02770 | 34.62460 | 8546 ft | 262 kts | 274° |
| 2026-05-05 11:13 | 32.02864 | 34.60317 | 9320 ft | 262 kts | 272° |
| 2026-05-05 11:13 | 32.02957 | 34.58170 | 10077 ft | 263 kts | 273° |
| 2026-05-05 11:13 | 32.03064 | 34.55968 | 10450 ft | 279 kts | 274° |
| 2026-05-05 11:14 | 32.03186 | 34.53599 | 10610 ft | 300 kts | 274° |
| 2026-05-05 11:14 | 32.03319 | 34.51063 | 10761 ft | 320 kts | 274° |
| 2026-05-05 11:14 | 32.03461 | 34.48369 | 10967 ft | 337 kts | 274° |
| 2026-05-05 11:14 | 32.03608 | 34.45575 | 11440 ft | 344 kts | 274° |
| 2026-05-05 11:15 | 32.03760 | 34.42752 | 12114 ft | 345 kts | 274° |
| 2026-05-05 11:15 | 32.03922 | 34.39926 | 12810 ft | 346 kts | 274° |
| 2026-05-05 11:15 | 32.04086 | 34.37092 | 13459 ft | 348 kts | 274° |
| 2026-05-05 11:15 | 32.04250 | 34.34258 | 14034 ft | 351 kts | 274° |
| 2026-05-05 11:16 | 32.04415 | 34.31379 | 14549 ft | 354 kts | 274° |
| 2026-05-05 11:16 | 32.04580 | 34.28469 | 15072 ft | 357 kts | 274° |
| 2026-05-05 11:16 | 32.04746 | 34.25538 | 15606 ft | 359 kts | 275° |
| 2026-05-05 11:16 | 32.05203 | 34.22634 | 16097 ft | 362 kts | 289° |
| 2026-05-05 11:17 | 32.06312 | 34.19951 | 16615 ft | 366 kts | 298° |
| 2026-05-05 11:17 | 32.07634 | 34.17371 | 17129 ft | 369 kts | 300° |
| 2026-05-05 11:17 | 32.08989 | 34.14785 | 17609 ft | 372 kts | 300° |
| 2026-05-05 11:17 | 32.10351 | 34.12171 | 18096 ft | 375 kts | 300° |
| 2026-05-05 11:18 | 32.11712 | 34.09530 | 18562 ft | 377 kts | 299° |
| 2026-05-05 11:18 | 32.13068 | 34.06871 | 18992 ft | 380 kts | 299° |
| 2026-05-05 11:18 | 32.14413 | 34.04220 | 19420 ft | 382 kts | 299° |
| 2026-05-05 11:18 | 32.15781 | 34.01517 | 19856 ft | 384 kts | 299° |
| 2026-05-05 11:19 | 32.17148 | 33.98784 | 20286 ft | 386 kts | 297° |
| 2026-05-05 11:19 | 32.18403 | 33.95972 | 20719 ft | 388 kts | 295° |
| 2026-05-05 11:19 | 32.19590 | 33.93103 | 21127 ft | 390 kts | 294° |
| 2026-05-05 11:19 | 32.20763 | 33.90198 | 21534 ft | 392 kts | 294° |
| 2026-05-05 11:20 | 32.21938 | 33.87278 | 21930 ft | 394 kts | 294° |
| 2026-05-05 11:20 | 32.23107 | 33.84385 | 22313 ft | 397 kts | 294° |
| 2026-05-05 11:20 | 32.24307 | 33.81438 | 22704 ft | 399 kts | 294° |
| 2026-05-05 11:20 | 32.25518 | 33.78477 | 23073 ft | 401 kts | 295° |
| 2026-05-05 11:21 | 32.26741 | 33.75498 | 23450 ft | 403 kts | 295° |
| 2026-05-05 11:21 | 32.27968 | 33.72512 | 23778 ft | 405 kts | 295° |
| 2026-05-05 11:21 | 32.29206 | 33.69500 | 24083 ft | 407 kts | 295° |
| 2026-05-05 11:21 | 32.30445 | 33.66486 | 24408 ft | 409 kts | 294° |
| 2026-05-05 11:22 | 32.31677 | 33.63487 | 24704 ft | 411 kts | 294° |
| 2026-05-05 11:22 | 32.32925 | 33.60446 | 24991 ft | 413 kts | 294° |
| 2026-05-05 11:22 | 32.34181 | 33.57381 | 25293 ft | 414 kts | 294° |
| 2026-05-05 11:22 | 32.35441 | 33.54306 | 25582 ft | 416 kts | 294° |
| 2026-05-05 11:23 | 32.36705 | 33.51218 | 25868 ft | 418 kts | 294° |
| 2026-05-05 11:23 | 32.37973 | 33.48115 | 26142 ft | 420 kts | 294° |
| 2026-05-05 11:23 | 32.39245 | 33.45003 | 26408 ft | 421 kts | 294° |
| 2026-05-05 11:23 | 32.40520 | 33.41877 | 26674 ft | 423 kts | 294° |
| 2026-05-05 11:24 | 32.41802 | 33.38735 | 26932 ft | 425 kts | 294° |
| 2026-05-05 11:24 | 32.43088 | 33.35579 | 27182 ft | 426 kts | 294° |
| 2026-05-05 11:24 | 32.44379 | 33.32407 | 27474 ft | 427 kts | 294° |
| 2026-05-05 11:24 | 32.45666 | 33.29244 | 27870 ft | 425 kts | 294° |
| 2026-05-05 11:25 | 32.46945 | 33.26096 | 28291 ft | 423 kts | 294° |
| 2026-05-05 11:25 | 32.48201 | 33.23002 | 28667 ft | 421 kts | 294° |
| 2026-05-05 11:25 | 32.49471 | 33.19872 | 28993 ft | 421 kts | 294° |
| 2026-05-05 11:25 | 32.50742 | 33.16735 | 29339 ft | 421 kts | 294° |
| 2026-05-05 11:26 | 32.52008 | 33.13608 | 29709 ft | 419 kts | 294° |
| 2026-05-05 11:26 | 32.53265 | 33.10501 | 30085 ft | 418 kts | 294° |
| 2026-05-05 11:26 | 32.54520 | 33.07395 | 30403 ft | 417 kts | 294° |
| 2026-05-05 11:26 | 32.55347 | 33.05349 | 30628 ft | 415 kts | 294° |
| 2026-05-05 11:27 | 32.57007 | 33.01235 | 31130 ft | 411 kts | 294° |
| 2026-05-05 11:27 | 32.58220 | 32.98227 | 31488 ft | 408 kts | 294° |
| 2026-05-05 11:27 | 32.59440 | 32.95197 | 31808 ft | 406 kts | 294° |
| 2026-05-05 11:27 | 32.60653 | 32.92182 | 32121 ft | 404 kts | 294° |
| 2026-05-05 11:28 | 32.61860 | 32.89180 | 32454 ft | 402 kts | 294° |
| 2026-05-05 11:28 | 32.62657 | 32.87197 | 32672 ft | 400 kts | 294° |
| 2026-05-05 11:28 | 32.63851 | 32.84222 | 32989 ft | 398 kts | 294° |
| 2026-05-05 11:28 | 32.65040 | 32.81259 | 33314 ft | 396 kts | 294° |
| 2026-05-05 11:29 | 32.66220 | 32.78313 | 33638 ft | 393 kts | 293° |
| 2026-05-05 11:29 | 32.67391 | 32.75389 | 33910 ft | 392 kts | 293° |
| 2026-05-05 11:29 | 32.68561 | 32.72464 | 34027 ft | 393 kts | 293° |
| 2026-05-05 11:30 | 32.70914 | 32.66574 | 34023 ft | 393 kts | 293° |
| 2026-05-05 11:30 | 32.73246 | 32.60728 | 34026 ft | 390 kts | 293° |
| 2026-05-05 11:31 | 32.75541 | 32.54966 | 34029 ft | 387 kts | 293° |
| 2026-05-05 11:31 | 32.77837 | 32.49189 | 34031 ft | 385 kts | 293° |
| 2026-05-05 11:32 | 32.80123 | 32.43431 | 34038 ft | 385 kts | 293° |
| 2026-05-05 11:32 | 32.82643 | 32.37790 | 34030 ft | 389 kts | 301° |
| 2026-05-05 11:33 | 32.85737 | 32.32487 | 34031 ft | 391 kts | 302° |
| 2026-05-05 11:33 | 32.88860 | 32.27151 | 34034 ft | 394 kts | 302° |
| 2026-05-05 11:34 | 32.91985 | 32.21774 | 34037 ft | 396 kts | 301° |
| 2026-05-05 11:34 | 32.95096 | 32.16397 | 34034 ft | 397 kts | 301° |
| 2026-05-05 11:35 | 32.98228 | 32.10969 | 34033 ft | 398 kts | 302° |
| 2026-05-05 11:35 | 33.01365 | 32.05522 | 34029 ft | 398 kts | 301° |
| 2026-05-05 11:36 | 33.04498 | 32.00076 | 34030 ft | 398 kts | 302° |
| 2026-05-05 11:36 | 33.07621 | 31.94637 | 34029 ft | 397 kts | 301° |
| 2026-05-05 11:37 | 33.10730 | 31.89216 | 34029 ft | 395 kts | 301° |
| 2026-05-05 11:37 | 33.13832 | 31.83798 | 34026 ft | 394 kts | 301° |
| 2026-05-05 11:38 | 33.16920 | 31.78397 | 34031 ft | 393 kts | 301° |
| 2026-05-05 11:38 | 33.19976 | 31.73044 | 34028 ft | 392 kts | 301° |
| 2026-05-05 11:39 | 33.23048 | 31.67656 | 34030 ft | 392 kts | 301° |
| 2026-05-05 11:39 | 33.26117 | 31.62264 | 34032 ft | 392 kts | 301° |
| 2026-05-05 11:40 | 33.29180 | 31.56876 | 34030 ft | 392 kts | 301° |
| 2026-05-05 11:40 | 33.32247 | 31.51472 | 34034 ft | 393 kts | 301° |
| 2026-05-05 11:41 | 33.35315 | 31.46059 | 34031 ft | 394 kts | 301° |
| 2026-05-05 11:41 | 33.38387 | 31.40631 | 34030 ft | 394 kts | 301° |
| 2026-05-05 11:42 | 33.41463 | 31.35188 | 34033 ft | 395 kts | 301° |
| 2026-05-05 11:42 | 33.44548 | 31.29721 | 34035 ft | 396 kts | 301° |
| 2026-05-05 11:43 | 33.47616 | 31.24275 | 34032 ft | 397 kts | 301° |
| 2026-05-05 11:43 | 33.50710 | 31.18775 | 34037 ft | 398 kts | 301° |
| 2026-05-05 11:44 | 33.53800 | 31.13274 | 34034 ft | 398 kts | 301° |
| 2026-05-05 11:44 | 33.56897 | 31.07754 | 34033 ft | 398 kts | 301° |
| 2026-05-05 11:45 | 33.59987 | 31.02236 | 34035 ft | 398 kts | 301° |
| 2026-05-05 11:45 | 33.63055 | 30.96749 | 34030 ft | 398 kts | 301° |
| 2026-05-05 11:46 | 33.66139 | 30.91227 | 34036 ft | 398 kts | 301° |
| 2026-05-05 11:46 | 33.69217 | 30.85706 | 34034 ft | 398 kts | 301° |
| 2026-05-05 11:47 | 33.72292 | 30.80182 | 34037 ft | 398 kts | 301° |
| 2026-05-05 11:47 | 33.75371 | 30.74643 | 34030 ft | 397 kts | 301° |
| 2026-05-05 11:48 | 33.79955 | 30.66379 | 34034 ft | 397 kts | 301° |
| 2026-05-05 11:48 | 33.83023 | 30.60838 | 34024 ft | 398 kts | 301° |
| 2026-05-05 11:49 | 33.86088 | 30.55294 | 34038 ft | 398 kts | 301° |
| 2026-05-05 11:49 | 33.89154 | 30.49741 | 34045 ft | 399 kts | 301° |
| 2026-05-05 11:50 | 33.92223 | 30.44172 | 34037 ft | 399 kts | 301° |
| 2026-05-05 11:50 | 33.95301 | 30.38579 | 34027 ft | 400 kts | 301° |
| 2026-05-05 11:51 | 33.98379 | 30.32978 | 34037 ft | 401 kts | 302° |
| 2026-05-05 11:51 | 34.01437 | 30.27403 | 34046 ft | 401 kts | 302° |
| 2026-05-05 11:52 | 34.04514 | 30.21785 | 34032 ft | 402 kts | 302° |
| 2026-05-05 11:52 | 34.07604 | 30.16135 | 34034 ft | 403 kts | 302° |
| 2026-05-05 11:53 | 34.10688 | 30.10488 | 34035 ft | 403 kts | 302° |
| 2026-05-05 11:53 | 34.13755 | 30.04862 | 34049 ft | 404 kts | 302° |
| 2026-05-05 11:54 | 34.16820 | 29.99176 | 34036 ft | 404 kts | 300° |
| 2026-05-05 11:54 | 34.19641 | 29.93305 | 34038 ft | 404 kts | 298° |
| 2026-05-05 11:55 | 34.22396 | 29.87383 | 34053 ft | 404 kts | 298° |
| 2026-05-05 11:55 | 34.25162 | 29.81451 | 34039 ft | 405 kts | 298° |
| 2026-05-05 11:56 | 34.27921 | 29.75559 | 34040 ft | 405 kts | 299° |
| 2026-05-05 11:56 | 34.30700 | 29.69629 | 34043 ft | 405 kts | 299° |
| 2026-05-05 11:57 | 34.33479 | 29.63697 | 34054 ft | 405 kts | 299° |
| 2026-05-05 11:57 | 34.36254 | 29.57760 | 34053 ft | 405 kts | 299° |
| 2026-05-05 11:58 | 34.39030 | 29.51813 | 34047 ft | 405 kts | 299° |
| 2026-05-05 11:58 | 34.41799 | 29.45870 | 34044 ft | 406 kts | 299° |
| 2026-05-05 11:59 | 34.44571 | 29.39911 | 34046 ft | 406 kts | 299° |
| 2026-05-05 11:59 | 34.47337 | 29.33953 | 34049 ft | 406 kts | 299° |
| 2026-05-05 12:00 | 34.50106 | 29.27981 | 34052 ft | 406 kts | 299° |
| 2026-05-05 12:00 | 34.52855 | 29.22041 | 34056 ft | 406 kts | 299° |
| 2026-05-05 12:01 | 34.55616 | 29.16063 | 34046 ft | 406 kts | 299° |
| 2026-05-05 12:01 | 34.58379 | 29.10073 | 34043 ft | 407 kts | 300° |
| 2026-05-05 12:02 | 34.61143 | 29.04069 | 34045 ft | 407 kts | 300° |
| 2026-05-05 12:02 | 34.63900 | 28.98069 | 34052 ft | 407 kts | 300° |
| 2026-05-05 12:03 | 34.66655 | 28.92064 | 34050 ft | 407 kts | 300° |
| 2026-05-05 12:03 | 34.69407 | 28.86055 | 34055 ft | 407 kts | 300° |
| 2026-05-05 12:04 | 34.72157 | 28.80041 | 34052 ft | 407 kts | 300° |
| 2026-05-05 12:04 | 34.74906 | 28.74016 | 34049 ft | 407 kts | 300° |
| 2026-05-05 12:05 | 34.77654 | 28.67985 | 34053 ft | 407 kts | 300° |
| 2026-05-05 12:05 | 34.80379 | 28.61995 | 34052 ft | 407 kts | 300° |
| 2026-05-05 12:06 | 34.83122 | 28.55954 | 34054 ft | 407 kts | 300° |
| 2026-05-05 12:06 | 34.85861 | 28.49908 | 34051 ft | 407 kts | 300° |
| 2026-05-05 12:07 | 34.88595 | 28.43866 | 34049 ft | 407 kts | 300° |
| 2026-05-05 12:07 | 34.91326 | 28.37819 | 34054 ft | 406 kts | 300° |
| 2026-05-05 12:08 | 34.94030 | 28.31821 | 34054 ft | 406 kts | 300° |
| 2026-05-05 12:08 | 34.96747 | 28.25785 | 34055 ft | 406 kts | 300° |
| 2026-05-05 12:09 | 34.99459 | 28.19747 | 34056 ft | 406 kts | 300° |
| 2026-05-05 12:09 | 35.02173 | 28.13696 | 34055 ft | 406 kts | 300° |
| 2026-05-05 12:10 | 35.04882 | 28.07645 | 34053 ft | 406 kts | 300° |
| 2026-05-05 12:10 | 35.07585 | 28.01595 | 34052 ft | 405 kts | 300° |
| 2026-05-05 12:11 | 35.10266 | 27.95585 | 34055 ft | 405 kts | 300° |
| 2026-05-05 12:11 | 35.12960 | 27.89534 | 34052 ft | 405 kts | 300° |
| 2026-05-05 12:12 | 35.15648 | 27.83488 | 34054 ft | 405 kts | 300° |
| 2026-05-05 12:12 | 35.18332 | 27.77438 | 34058 ft | 405 kts | 300° |
| 2026-05-05 12:13 | 35.21015 | 27.71383 | 34053 ft | 405 kts | 300° |
| 2026-05-05 12:13 | 35.23239 | 27.66351 | 34056 ft | 404 kts | 300° |
| 2026-05-05 12:14 | 35.25913 | 27.60295 | 34059 ft | 404 kts | 300° |
| 2026-05-05 12:14 | 35.28585 | 27.54231 | 34060 ft | 404 kts | 300° |
| 2026-05-05 12:15 | 35.31254 | 27.48166 | 34057 ft | 404 kts | 300° |
| 2026-05-05 12:15 | 35.33912 | 27.42112 | 34057 ft | 404 kts | 300° |
| 2026-05-05 12:16 | 35.36571 | 27.36045 | 34052 ft | 404 kts | 300° |
| 2026-05-05 12:16 | 35.39207 | 27.30020 | 34050 ft | 404 kts | 300° |
| 2026-05-05 12:17 | 35.41859 | 27.23949 | 34050 ft | 403 kts | 300° |
| 2026-05-05 12:17 | 35.44503 | 27.17884 | 34046 ft | 403 kts | 300° |
| 2026-05-05 12:18 | 35.47145 | 27.11813 | 34053 ft | 403 kts | 300° |
| 2026-05-05 12:18 | 35.49781 | 27.05743 | 34044 ft | 403 kts | 300° |
| 2026-05-05 12:19 | 35.52416 | 26.99668 | 34055 ft | 402 kts | 300° |
| 2026-05-05 12:19 | 35.55027 | 26.93635 | 34060 ft | 402 kts | 300° |
| 2026-05-05 12:20 | 35.57648 | 26.87568 | 34061 ft | 402 kts | 300° |
| 2026-05-05 12:20 | 35.60266 | 26.81497 | 34065 ft | 401 kts | 300° |
| 2026-05-05 12:21 | 35.62877 | 26.75431 | 34069 ft | 401 kts | 300° |
| 2026-05-05 12:21 | 35.65480 | 26.69375 | 34071 ft | 400 kts | 300° |
| 2026-05-05 12:22 | 35.68078 | 26.63317 | 34073 ft | 400 kts | 300° |
| 2026-05-05 12:22 | 35.70669 | 26.57266 | 34076 ft | 400 kts | 300° |
| 2026-05-05 12:23 | 35.73256 | 26.51211 | 34078 ft | 399 kts | 300° |
| 2026-05-05 12:23 | 35.75827 | 26.45184 | 34080 ft | 399 kts | 300° |
| 2026-05-05 12:24 | 35.78406 | 26.39127 | 34077 ft | 399 kts | 300° |
| 2026-05-05 12:24 | 35.80979 | 26.33073 | 34082 ft | 399 kts | 300° |
| 2026-05-05 12:25 | 35.83553 | 26.27008 | 34083 ft | 399 kts | 300° |
| 2026-05-05 12:25 | 35.86118 | 26.20951 | 34091 ft | 399 kts | 300° |
| 2026-05-05 12:26 | 35.88681 | 26.14886 | 34084 ft | 399 kts | 300° |
| 2026-05-05 12:26 | 35.91241 | 26.08818 | 34090 ft | 399 kts | 300° |
| 2026-05-05 12:27 | 35.93781 | 26.02789 | 34088 ft | 398 kts | 300° |
| 2026-05-05 12:27 | 35.96336 | 25.96711 | 34087 ft | 398 kts | 300° |
| 2026-05-05 12:28 | 35.98885 | 25.90634 | 34097 ft | 398 kts | 300° |
| 2026-05-05 12:28 | 36.01435 | 25.84548 | 34093 ft | 398 kts | 300° |
| 2026-05-05 12:29 | 36.03979 | 25.78461 | 34092 ft | 398 kts | 300° |
| 2026-05-05 12:29 | 36.06502 | 25.72414 | 34100 ft | 398 kts | 300° |
| 2026-05-05 12:30 | 36.09038 | 25.66326 | 34099 ft | 398 kts | 300° |
| 2026-05-05 12:30 | 36.11571 | 25.60233 | 34098 ft | 398 kts | 300° |
| 2026-05-05 12:31 | 36.14105 | 25.54126 | 34099 ft | 398 kts | 300° |
| 2026-05-05 12:31 | 36.16632 | 25.48026 | 34097 ft | 398 kts | 300° |
| 2026-05-05 12:32 | 36.19155 | 25.41922 | 34098 ft | 398 kts | 300° |
| 2026-05-05 12:32 | 36.21661 | 25.35848 | 34100 ft | 398 kts | 300° |
| 2026-05-05 12:33 | 36.24178 | 25.29738 | 34100 ft | 398 kts | 300° |
| 2026-05-05 12:33 | 36.26691 | 25.23626 | 34103 ft | 398 kts | 300° |
| 2026-05-05 12:34 | 36.29199 | 25.17512 | 34101 ft | 398 kts | 300° |
| 2026-05-05 12:34 | 36.31706 | 25.11391 | 34103 ft | 397 kts | 300° |
| 2026-05-05 12:35 | 36.34190 | 25.05314 | 34101 ft | 397 kts | 300° |
| 2026-05-05 12:35 | 36.36683 | 24.99203 | 34105 ft | 397 kts | 300° |
| 2026-05-05 12:36 | 36.39174 | 24.93087 | 34102 ft | 397 kts | 300° |
| 2026-05-05 12:36 | 36.41661 | 24.86967 | 34101 ft | 397 kts | 300° |
| 2026-05-05 12:37 | 36.44144 | 24.80848 | 34103 ft | 397 kts | 300° |
| 2026-05-05 12:37 | 36.46623 | 24.74725 | 34104 ft | 396 kts | 299° |
| 2026-05-05 12:38 | 36.49099 | 24.68599 | 34105 ft | 396 kts | 300° |
| 2026-05-05 12:38 | 36.51568 | 24.62477 | 34104 ft | 396 kts | 300° |
| 2026-05-05 12:39 | 36.54035 | 24.56352 | 34108 ft | 396 kts | 299° |
| 2026-05-05 12:39 | 36.56483 | 24.50258 | 34101 ft | 396 kts | 299° |
| 2026-05-05 12:40 | 36.58941 | 24.44132 | 34099 ft | 396 kts | 299° |
| 2026-05-05 12:40 | 36.61397 | 24.37996 | 34101 ft | 395 kts | 299° |
| 2026-05-05 12:41 | 36.63846 | 24.31865 | 34100 ft | 395 kts | 299° |
| 2026-05-05 12:41 | 36.66280 | 24.25762 | 34101 ft | 395 kts | 299° |
| 2026-05-05 12:42 | 36.68725 | 24.19620 | 34103 ft | 395 kts | 299° |
| 2026-05-05 12:42 | 36.71167 | 24.13473 | 34103 ft | 395 kts | 299° |
| 2026-05-05 12:43 | 36.73603 | 24.07328 | 34099 ft | 395 kts | 299° |
| 2026-05-05 12:43 | 36.76038 | 24.01175 | 34097 ft | 395 kts | 299° |
| 2026-05-05 12:44 | 36.78457 | 23.95051 | 34096 ft | 396 kts | 299° |
| 2026-05-05 12:44 | 36.80901 | 23.88850 | 34099 ft | 396 kts | 299° |
| 2026-05-05 12:45 | 36.83311 | 23.82724 | 34098 ft | 396 kts | 299° |
| 2026-05-05 12:45 | 36.85739 | 23.76542 | 34093 ft | 396 kts | 299° |
| 2026-05-05 12:46 | 36.88161 | 23.70360 | 34094 ft | 396 kts | 299° |
| 2026-05-05 12:46 | 36.90583 | 23.64168 | 34092 ft | 397 kts | 299° |
| 2026-05-05 12:47 | 36.93007 | 23.57959 | 34095 ft | 397 kts | 299° |
| 2026-05-05 12:47 | 36.95428 | 23.51746 | 34085 ft | 397 kts | 298° |
| 2026-05-05 12:48 | 36.97846 | 23.45527 | 34086 ft | 398 kts | 298° |
| 2026-05-05 12:48 | 37.00247 | 23.39338 | 34086 ft | 398 kts | 298° |
| 2026-05-05 12:49 | 37.02661 | 23.33105 | 34086 ft | 398 kts | 298° |
| 2026-05-05 12:49 | 37.05073 | 23.26866 | 34090 ft | 398 kts | 298° |
| 2026-05-05 12:50 | 37.07481 | 23.20622 | 34081 ft | 398 kts | 298° |
| 2026-05-05 12:50 | 37.09890 | 23.14365 | 34082 ft | 398 kts | 298° |
| 2026-05-05 12:51 | 37.12303 | 23.08087 | 34180 ft | 403 kts | 298° |
| 2026-05-05 12:51 | 37.13522 | 23.04912 | 34325 ft | 404 kts | 298° |
| 2026-05-05 12:51 | 37.14739 | 23.01734 | 34547 ft | 403 kts | 298° |
| 2026-05-05 12:52 | 37.15936 | 22.98607 | 34772 ft | 402 kts | 298° |
| 2026-05-05 12:52 | 37.17146 | 22.95441 | 34960 ft | 402 kts | 298° |
| 2026-05-05 12:52 | 37.18354 | 22.92281 | 35144 ft | 402 kts | 298° |
| 2026-05-05 12:52 | 37.19560 | 22.89119 | 35361 ft | 401 kts | 298° |
| 2026-05-05 12:53 | 37.20760 | 22.85971 | 35604 ft | 399 kts | 297° |
| 2026-05-05 12:53 | 37.21958 | 22.82827 | 35789 ft | 399 kts | 297° |
| 2026-05-05 12:53 | 37.23159 | 22.79671 | 35931 ft | 400 kts | 297° |
| 2026-05-05 12:53 | 37.24338 | 22.76570 | 36060 ft | 399 kts | 297° |
| 2026-05-05 12:54 | 37.27933 | 22.67094 | 36082 ft | 401 kts | 297° |
| 2026-05-05 12:55 | 37.30319 | 22.60788 | 36080 ft | 399 kts | 297° |
| 2026-05-05 12:55 | 37.32695 | 22.54496 | 36075 ft | 398 kts | 297° |
| 2026-05-05 12:56 | 37.35060 | 22.48219 | 36080 ft | 397 kts | 297° |
| 2026-05-05 12:56 | 37.37418 | 22.41949 | 36093 ft | 396 kts | 297° |
| 2026-05-05 12:57 | 37.39774 | 22.35675 | 36086 ft | 396 kts | 297° |
| 2026-05-05 12:57 | 37.42062 | 22.29405 | 36092 ft | 397 kts | 296° |
| 2026-05-05 12:58 | 37.44292 | 22.23034 | 36103 ft | 397 kts | 296° |
| 2026-05-05 12:58 | 37.46513 | 22.16660 | 36104 ft | 398 kts | 296° |
| 2026-05-05 12:59 | 37.48743 | 22.10277 | 36111 ft | 398 kts | 296° |
| 2026-05-05 12:59 | 37.50962 | 22.03928 | 36100 ft | 399 kts | 296° |
| 2026-05-05 13:00 | 37.54320 | 21.94299 | 36108 ft | 401 kts | 295° |
| 2026-05-05 13:01 | 37.58798 | 21.81409 | 36121 ft | 401 kts | 295° |
| 2026-05-05 13:01 | 37.61028 | 21.74970 | 36117 ft | 400 kts | 295° |
| 2026-05-05 13:02 | 37.63252 | 21.68534 | 36132 ft | 399 kts | 295° |
| 2026-05-05 13:02 | 37.65092 | 21.63201 | 36122 ft | 399 kts | 295° |
| 2026-05-05 13:03 | 37.67303 | 21.56776 | 36126 ft | 398 kts | 295° |
| 2026-05-05 13:03 | 37.69859 | 21.49333 | 36135 ft | 396 kts | 295° |
| 2026-05-05 13:04 | 37.71693 | 21.43981 | 36130 ft | 396 kts | 295° |
| 2026-05-05 13:04 | 37.73864 | 21.37634 | 36123 ft | 396 kts | 295° |
| 2026-05-05 13:05 | 37.76046 | 21.31241 | 36126 ft | 397 kts | 295° |
| 2026-05-05 13:05 | 37.78227 | 21.24835 | 36132 ft | 397 kts | 295° |
| 2026-05-05 13:06 | 37.80408 | 21.18417 | 36130 ft | 397 kts | 295° |
| 2026-05-05 13:06 | 37.82585 | 21.11996 | 36127 ft | 397 kts | 295° |
| 2026-05-05 13:07 | 37.84761 | 21.05562 | 36132 ft | 398 kts | 295° |
| 2026-05-05 13:07 | 37.86936 | 20.99117 | 36129 ft | 398 kts | 295° |
| 2026-05-05 13:08 | 37.89096 | 20.92704 | 36131 ft | 398 kts | 295° |
| 2026-05-05 13:08 | 37.91268 | 20.86241 | 36132 ft | 399 kts | 294° |
| 2026-05-05 13:09 | 37.93437 | 20.79773 | 36131 ft | 399 kts | 294° |
| 2026-05-05 13:09 | 37.95602 | 20.73302 | 36133 ft | 399 kts | 294° |
| 2026-05-05 13:10 | 37.97770 | 20.66805 | 36151 ft | 399 kts | 294° |
| 2026-05-05 13:10 | 37.99932 | 20.60316 | 36155 ft | 399 kts | 294° |
| 2026-05-05 13:11 | 38.02076 | 20.53862 | 36158 ft | 399 kts | 294° |
| 2026-05-05 13:11 | 38.04229 | 20.47369 | 36157 ft | 399 kts | 294° |
| 2026-05-05 13:12 | 38.06377 | 20.40877 | 36158 ft | 399 kts | 294° |
| 2026-05-05 13:12 | 38.08523 | 20.34376 | 36157 ft | 399 kts | 294° |
| 2026-05-05 13:13 | 38.10667 | 20.27868 | 36151 ft | 399 kts | 294° |
| 2026-05-05 13:13 | 38.12803 | 20.21367 | 36150 ft | 399 kts | 294° |
| 2026-05-05 13:14 | 38.14937 | 20.14856 | 36148 ft | 399 kts | 294° |
| 2026-05-05 13:14 | 38.17069 | 20.08340 | 36144 ft | 399 kts | 294° |
| 2026-05-05 13:15 | 38.19197 | 20.01819 | 36142 ft | 399 kts | 294° |
| 2026-05-05 13:15 | 38.21326 | 19.95282 | 36139 ft | 400 kts | 294° |
| 2026-05-05 13:16 | 38.23448 | 19.88748 | 36138 ft | 400 kts | 294° |
| 2026-05-05 13:16 | 38.25570 | 19.82203 | 36140 ft | 400 kts | 294° |
| 2026-05-05 13:17 | 38.27678 | 19.75685 | 36139 ft | 401 kts | 294° |
| 2026-05-05 13:17 | 38.29796 | 19.69119 | 36138 ft | 401 kts | 294° |
| 2026-05-05 13:18 | 38.31910 | 19.62554 | 36135 ft | 401 kts | 293° |
| 2026-05-05 13:18 | 38.34022 | 19.55978 | 36138 ft | 401 kts | 293° |
| 2026-05-05 13:19 | 38.36128 | 19.49402 | 36137 ft | 401 kts | 293° |
| 2026-05-05 13:19 | 38.38236 | 19.42808 | 36132 ft | 401 kts | 293° |
| 2026-05-05 13:20 | 38.40336 | 19.36224 | 36130 ft | 401 kts | 293° |
| 2026-05-05 13:20 | 38.42433 | 19.29635 | 36128 ft | 401 kts | 293° |
| 2026-05-05 13:21 | 38.44526 | 19.23041 | 36141 ft | 401 kts | 294° |
| 2026-05-05 13:21 | 38.46601 | 19.16487 | 36138 ft | 400 kts | 293° |
| 2026-05-05 13:22 | 38.48685 | 19.09890 | 36132 ft | 400 kts | 294° |
| 2026-05-05 13:22 | 38.50763 | 19.03300 | 36132 ft | 400 kts | 293° |
| 2026-05-05 13:23 | 38.52734 | 18.96650 | 36130 ft | 401 kts | 290° |
| 2026-05-05 13:23 | 38.54475 | 18.89881 | 36132 ft | 401 kts | 290° |
| 2026-05-05 13:24 | 38.56187 | 18.83103 | 36130 ft | 401 kts | 290° |
| 2026-05-05 13:24 | 38.57912 | 18.76331 | 36118 ft | 401 kts | 290° |
| 2026-05-05 13:25 | 38.59643 | 18.69563 | 36122 ft | 400 kts | 290° |
| 2026-05-05 13:25 | 38.61362 | 18.62839 | 36119 ft | 400 kts | 290° |
| 2026-05-05 13:26 | 38.63091 | 18.56059 | 36116 ft | 400 kts | 290° |
| 2026-05-05 13:26 | 38.64814 | 18.49286 | 36123 ft | 401 kts | 290° |
| 2026-05-05 13:27 | 38.66535 | 18.42499 | 36115 ft | 401 kts | 290° |
| 2026-05-05 13:27 | 38.68252 | 18.35713 | 36118 ft | 401 kts | 289° |
| 2026-05-05 13:28 | 38.69969 | 18.28905 | 36114 ft | 401 kts | 289° |
| 2026-05-05 13:28 | 38.71679 | 18.22107 | 36112 ft | 401 kts | 289° |
| 2026-05-05 13:29 | 38.73376 | 18.15339 | 36119 ft | 402 kts | 289° |
| 2026-05-05 13:29 | 38.75084 | 18.08510 | 36111 ft | 402 kts | 289° |
| 2026-05-05 13:30 | 38.76786 | 18.01688 | 36113 ft | 402 kts | 289° |
| 2026-05-05 13:30 | 38.78486 | 17.94854 | 36108 ft | 402 kts | 289° |
| 2026-05-05 13:31 | 38.80182 | 17.88014 | 36103 ft | 403 kts | 289° |
| 2026-05-05 13:31 | 38.81877 | 17.81162 | 36102 ft | 403 kts | 289° |
| 2026-05-05 13:32 | 38.83560 | 17.74338 | 36099 ft | 403 kts | 289° |
| 2026-05-05 13:32 | 38.85249 | 17.67471 | 36093 ft | 403 kts | 288° |
| 2026-05-05 13:33 | 38.86934 | 17.60597 | 36093 ft | 403 kts | 288° |
| 2026-05-05 13:33 | 38.88615 | 17.53725 | 36091 ft | 404 kts | 288° |
| 2026-05-05 13:34 | 38.90283 | 17.46881 | 36091 ft | 404 kts | 288° |
| 2026-05-05 13:34 | 38.91958 | 17.39994 | 36093 ft | 404 kts | 288° |
| 2026-05-05 13:35 | 38.93629 | 17.33101 | 36094 ft | 404 kts | 288° |
| 2026-05-05 13:35 | 38.95297 | 17.26197 | 36103 ft | 405 kts | 288° |
| 2026-05-05 13:36 | 38.96961 | 17.19294 | 36104 ft | 405 kts | 288° |
| 2026-05-05 13:36 | 38.98624 | 17.12375 | 36100 ft | 405 kts | 288° |
| 2026-05-05 13:37 | 39.00278 | 17.05446 | 36101 ft | 405 kts | 287° |
| 2026-05-05 13:37 | 39.01900 | 16.98499 | 36106 ft | 406 kts | 287° |
| 2026-05-05 13:38 | 39.03505 | 16.91578 | 36099 ft | 407 kts | 287° |
| 2026-05-05 13:38 | 39.05121 | 16.84603 | 36093 ft | 407 kts | 287° |
| 2026-05-05 13:39 | 39.06737 | 16.77615 | 36088 ft | 407 kts | 287° |
| 2026-05-05 13:39 | 39.08347 | 16.70634 | 36083 ft | 407 kts | 287° |
| 2026-05-05 13:40 | 39.09956 | 16.63637 | 36088 ft | 407 kts | 286° |
| 2026-05-05 13:40 | 39.11562 | 16.56633 | 36090 ft | 408 kts | 286° |
| 2026-05-05 13:41 | 39.13154 | 16.49666 | 36088 ft | 408 kts | 286° |
| 2026-05-05 13:41 | 39.14753 | 16.42648 | 36101 ft | 408 kts | 286° |
| 2026-05-05 13:42 | 39.16350 | 16.35622 | 36096 ft | 409 kts | 286° |
| 2026-05-05 13:42 | 39.17944 | 16.28581 | 36092 ft | 409 kts | 286° |
| 2026-05-05 13:43 | 39.19532 | 16.21547 | 36094 ft | 408 kts | 286° |
| 2026-05-05 13:43 | 39.21116 | 16.14507 | 36088 ft | 409 kts | 286° |
| 2026-05-05 13:44 | 39.22695 | 16.07465 | 36090 ft | 409 kts | 286° |
| 2026-05-05 13:44 | 39.24271 | 16.00420 | 36084 ft | 408 kts | 286° |
| 2026-05-05 13:45 | 39.25827 | 15.93439 | 36094 ft | 406 kts | 286° |
| 2026-05-05 13:45 | 39.27381 | 15.86446 | 36094 ft | 405 kts | 285° |
| 2026-05-05 13:46 | 39.28926 | 15.79472 | 36099 ft | 403 kts | 285° |
| 2026-05-05 13:46 | 39.30462 | 15.72518 | 36097 ft | 402 kts | 285° |
| 2026-05-05 13:47 | 39.31991 | 15.65572 | 36096 ft | 401 kts | 285° |
| 2026-05-05 13:47 | 39.33513 | 15.58637 | 36098 ft | 401 kts | 285° |
| 2026-05-05 13:48 | 39.35030 | 15.51704 | 36097 ft | 401 kts | 285° |
| 2026-05-05 13:48 | 39.36532 | 15.44817 | 36098 ft | 401 kts | 285° |
| 2026-05-05 13:49 | 39.38042 | 15.37872 | 36098 ft | 402 kts | 285° |
| 2026-05-05 13:49 | 39.39550 | 15.30916 | 36099 ft | 402 kts | 285° |
| 2026-05-05 13:50 | 39.41056 | 15.23941 | 36100 ft | 403 kts | 285° |
| 2026-05-05 13:50 | 39.42307 | 15.18137 | 36102 ft | 403 kts | 285° |
| 2026-05-05 13:51 | 39.43808 | 15.11147 | 36098 ft | 403 kts | 285° |
| 2026-05-05 13:51 | 39.45307 | 15.04146 | 36103 ft | 404 kts | 285° |
| 2026-05-05 13:52 | 39.46800 | 14.97147 | 36101 ft | 404 kts | 285° |
| 2026-05-05 13:52 | 39.48289 | 14.90147 | 36099 ft | 403 kts | 285° |
| 2026-05-05 13:53 | 39.49774 | 14.83141 | 36103 ft | 403 kts | 285° |
| 2026-05-05 13:53 | 39.51253 | 14.76140 | 36100 ft | 403 kts | 285° |
| 2026-05-05 13:54 | 39.52726 | 14.69148 | 36101 ft | 402 kts | 285° |
| 2026-05-05 13:54 | 39.54194 | 14.62152 | 36100 ft | 402 kts | 284° |
| 2026-05-05 13:55 | 39.55658 | 14.55163 | 36102 ft | 401 kts | 284° |
| 2026-05-05 13:55 | 39.57095 | 14.48176 | 36098 ft | 401 kts | 284° |
| 2026-05-05 13:56 | 39.58459 | 14.41167 | 36098 ft | 401 kts | 283° |
| 2026-05-05 13:56 | 39.59808 | 14.34161 | 36101 ft | 401 kts | 283° |
| 2026-05-05 13:57 | 39.61159 | 14.27156 | 36102 ft | 400 kts | 283° |
| 2026-05-05 13:57 | 39.62502 | 14.20190 | 36096 ft | 400 kts | 283° |
| 2026-05-05 13:58 | 39.63848 | 14.13198 | 36099 ft | 400 kts | 283° |
| 2026-05-05 13:58 | 39.65190 | 14.06196 | 36102 ft | 399 kts | 283° |
| 2026-05-05 13:59 | 39.67195 | 13.95692 | 36096 ft | 399 kts | 283° |
| 2026-05-05 14:00 | 39.69177 | 13.85254 | 36094 ft | 398 kts | 283° |
| 2026-05-05 14:00 | 39.70498 | 13.78270 | 36084 ft | 398 kts | 283° |
| 2026-05-05 14:01 | 39.71812 | 13.71292 | 36088 ft | 398 kts | 283° |
| 2026-05-05 14:01 | 39.73120 | 13.64322 | 36081 ft | 397 kts | 282° |
| 2026-05-05 14:02 | 39.74428 | 13.57331 | 36080 ft | 397 kts | 282° |
| 2026-05-05 14:02 | 39.75727 | 13.50361 | 36074 ft | 397 kts | 282° |
| 2026-05-05 14:03 | 39.77015 | 13.43421 | 36072 ft | 397 kts | 282° |
| 2026-05-05 14:03 | 39.78307 | 13.36438 | 36072 ft | 397 kts | 282° |
| 2026-05-05 14:04 | 39.79594 | 13.29459 | 36069 ft | 396 kts | 282° |
| 2026-05-05 14:04 | 39.80877 | 13.22474 | 36064 ft | 396 kts | 282° |
| 2026-05-05 14:05 | 39.82147 | 13.15535 | 36067 ft | 396 kts | 282° |
| 2026-05-05 14:05 | 39.83421 | 13.08549 | 36060 ft | 397 kts | 282° |
| 2026-05-05 14:06 | 39.84690 | 13.01561 | 36057 ft | 397 kts | 282° |
| 2026-05-05 14:06 | 39.85960 | 12.94545 | 36057 ft | 398 kts | 282° |
| 2026-05-05 14:07 | 39.87226 | 12.87528 | 36057 ft | 399 kts | 282° |
| 2026-05-05 14:07 | 39.88490 | 12.80492 | 36058 ft | 399 kts | 281° |
| 2026-05-05 14:08 | 39.89753 | 12.73433 | 36056 ft | 400 kts | 281° |
| 2026-05-05 14:08 | 39.91007 | 12.66401 | 36058 ft | 401 kts | 281° |
| 2026-05-05 14:09 | 39.92269 | 12.59303 | 36055 ft | 402 kts | 281° |
| 2026-05-05 14:09 | 39.93526 | 12.52199 | 36060 ft | 402 kts | 281° |
| 2026-05-05 14:10 | 39.94780 | 12.45087 | 36056 ft | 403 kts | 281° |
| 2026-05-05 14:10 | 39.96031 | 12.37964 | 36055 ft | 403 kts | 281° |
| 2026-05-05 14:11 | 39.97277 | 12.30840 | 36049 ft | 403 kts | 281° |
| 2026-05-05 14:11 | 39.98519 | 12.23714 | 36055 ft | 403 kts | 281° |
| 2026-05-05 14:12 | 39.99754 | 12.16599 | 36047 ft | 402 kts | 281° |
| 2026-05-05 14:12 | 40.00986 | 12.09480 | 36046 ft | 402 kts | 281° |
| 2026-05-05 14:13 | 40.02211 | 12.02367 | 36041 ft | 401 kts | 281° |
| 2026-05-05 14:13 | 40.03423 | 11.95304 | 36041 ft | 401 kts | 281° |
| 2026-05-05 14:14 | 40.04636 | 11.88207 | 36048 ft | 400 kts | 281° |
| 2026-05-05 14:14 | 40.05843 | 11.81123 | 36042 ft | 399 kts | 281° |
| 2026-05-05 14:15 | 40.07319 | 11.74115 | 36042 ft | 400 kts | 284° |
| 2026-05-05 14:15 | 40.08964 | 11.67182 | 36040 ft | 399 kts | 285° |
| 2026-05-05 14:16 | 40.10607 | 11.60248 | 36029 ft | 399 kts | 284° |
| 2026-05-05 14:16 | 40.12217 | 11.53360 | 36037 ft | 398 kts | 284° |
| 2026-05-05 14:17 | 40.13824 | 11.46435 | 36030 ft | 398 kts | 284° |
| 2026-05-05 14:17 | 40.15421 | 11.39515 | 36028 ft | 398 kts | 284° |
| 2026-05-05 14:18 | 40.17015 | 11.32587 | 36032 ft | 398 kts | 284° |
| 2026-05-05 14:18 | 40.18603 | 11.25662 | 36031 ft | 397 kts | 284° |
| 2026-05-05 14:19 | 40.20187 | 11.18733 | 36026 ft | 397 kts | 284° |
| 2026-05-05 14:19 | 40.21766 | 11.11809 | 36026 ft | 397 kts | 284° |
| 2026-05-05 14:20 | 40.23340 | 11.04883 | 36025 ft | 397 kts | 284° |
| 2026-05-05 14:20 | 40.24910 | 10.97951 | 36020 ft | 397 kts | 284° |
| 2026-05-05 14:21 | 40.26477 | 10.91016 | 36019 ft | 397 kts | 283° |
| 2026-05-05 14:21 | 40.28028 | 10.84128 | 36018 ft | 397 kts | 283° |
| 2026-05-05 14:22 | 40.29583 | 10.77202 | 36018 ft | 396 kts | 283° |
| 2026-05-05 14:22 | 40.31134 | 10.70269 | 36018 ft | 396 kts | 283° |
| 2026-05-05 14:23 | 40.32680 | 10.63339 | 36011 ft | 396 kts | 283° |
| 2026-05-05 14:23 | 40.34221 | 10.56409 | 36011 ft | 396 kts | 283° |
| 2026-05-05 14:24 | 40.35757 | 10.49482 | 36009 ft | 395 kts | 283° |
| 2026-05-05 14:24 | 40.37287 | 10.42559 | 36004 ft | 395 kts | 283° |
| 2026-05-05 14:25 | 40.38811 | 10.35640 | 36005 ft | 394 kts | 283° |
| 2026-05-05 14:25 | 40.40328 | 10.28728 | 35996 ft | 394 kts | 283° |
| 2026-05-05 14:26 | 40.41832 | 10.21859 | 36004 ft | 394 kts | 283° |
| 2026-05-05 14:26 | 40.43340 | 10.14948 | 36002 ft | 393 kts | 282° |
| 2026-05-05 14:27 | 40.44840 | 10.08054 | 36000 ft | 393 kts | 282° |
| 2026-05-05 14:27 | 40.46336 | 10.01153 | 35993 ft | 392 kts | 282° |
| 2026-05-05 14:28 | 40.47826 | 9.94258 | 35996 ft | 392 kts | 282° |
| 2026-05-05 14:28 | 40.49309 | 9.87376 | 35996 ft | 391 kts | 282° |
| 2026-05-05 14:29 | 40.50779 | 9.80532 | 35988 ft | 391 kts | 282° |
| 2026-05-05 14:29 | 40.52252 | 9.73651 | 35991 ft | 391 kts | 282° |
| 2026-05-05 14:30 | 40.53720 | 9.66770 | 35999 ft | 391 kts | 281° |
| 2026-05-05 14:30 | 40.55184 | 9.59885 | 35997 ft | 392 kts | 281° |
| 2026-05-05 14:31 | 40.56649 | 9.52974 | 35980 ft | 392 kts | 281° |
| 2026-05-05 14:31 | 40.58111 | 9.46059 | 35986 ft | 391 kts | 281° |
| 2026-05-05 14:32 | 40.59554 | 9.39216 | 36001 ft | 390 kts | 281° |
| 2026-05-05 14:32 | 40.61001 | 9.32318 | 35993 ft | 392 kts | 281° |
| 2026-05-05 14:33 | 40.62450 | 9.25385 | 35990 ft | 393 kts | 281° |
| 2026-05-05 14:33 | 40.63902 | 9.18422 | 35987 ft | 395 kts | 281° |
| 2026-05-05 14:34 | 40.65345 | 9.11482 | 35992 ft | 396 kts | 281° |
| 2026-05-05 14:34 | 40.66797 | 9.04477 | 35990 ft | 397 kts | 281° |
| 2026-05-05 14:35 | 40.68249 | 8.97444 | 35985 ft | 398 kts | 280° |
| 2026-05-05 14:35 | 40.69699 | 8.90400 | 35982 ft | 398 kts | 280° |
| 2026-05-05 14:36 | 40.71145 | 8.83350 | 35985 ft | 398 kts | 280° |
| 2026-05-05 14:36 | 40.72587 | 8.76299 | 35970 ft | 398 kts | 280° |
| 2026-05-05 14:37 | 40.74020 | 8.69268 | 35980 ft | 396 kts | 280° |
| 2026-05-05 14:37 | 40.75205 | 8.63428 | 35981 ft | 396 kts | 280° |
| 2026-05-05 14:38 | 40.76858 | 8.55260 | 35995 ft | 397 kts | 279° |
| 2026-05-05 14:38 | 40.78041 | 8.49390 | 36241 ft | 398 kts | 279° |
| 2026-05-05 14:39 | 40.78750 | 8.45873 | 36548 ft | 395 kts | 279° |
| 2026-05-05 14:39 | 40.79454 | 8.42368 | 36794 ft | 394 kts | 279° |
| 2026-05-05 14:39 | 40.80155 | 8.38873 | 36971 ft | 394 kts | 279° |
| 2026-05-05 14:39 | 40.80856 | 8.35369 | 36972 ft | 397 kts | 279° |
| 2026-05-05 14:40 | 40.82263 | 8.28320 | 36979 ft | 396 kts | 279° |
| 2026-05-05 14:40 | 40.83657 | 8.21322 | 36983 ft | 393 kts | 279° |
| 2026-05-05 14:41 | 40.85038 | 8.14356 | 36976 ft | 390 kts | 279° |
| 2026-05-05 14:41 | 40.85916 | 8.07375 | 36982 ft | 382 kts | 269° |
| 2026-05-05 14:42 | 40.86184 | 8.00415 | 36980 ft | 382 kts | 269° |
| 2026-05-05 14:42 | 40.86602 | 7.93408 | 36977 ft | 384 kts | 271° |
| 2026-05-05 14:43 | 40.87113 | 7.86372 | 36977 ft | 385 kts | 271° |
| 2026-05-05 14:43 | 40.87618 | 7.79303 | 36979 ft | 387 kts | 271° |
| 2026-05-05 14:44 | 40.88109 | 7.72200 | 36967 ft | 389 kts | 271° |
| 2026-05-05 14:44 | 40.88592 | 7.65056 | 36967 ft | 390 kts | 270° |
| 2026-05-05 14:45 | 40.89069 | 7.57900 | 36964 ft | 391 kts | 270° |
| 2026-05-05 14:45 | 40.89543 | 7.50735 | 36963 ft | 391 kts | 270° |
| 2026-05-05 14:46 | 40.90011 | 7.43578 | 36962 ft | 391 kts | 270° |
| 2026-05-05 14:46 | 40.90474 | 7.36431 | 36959 ft | 390 kts | 270° |
| 2026-05-05 14:47 | 40.90929 | 7.29347 | 36955 ft | 388 kts | 270° |
| 2026-05-05 14:47 | 40.91381 | 7.22233 | 36956 ft | 387 kts | 270° |
| 2026-05-05 14:48 | 40.91827 | 7.15134 | 36962 ft | 386 kts | 270° |
| 2026-05-05 14:48 | 40.92268 | 7.08055 | 36953 ft | 385 kts | 270° |
| 2026-05-05 14:49 | 40.92703 | 7.00993 | 36954 ft | 385 kts | 270° |
| 2026-05-05 14:49 | 40.93131 | 6.93986 | 36956 ft | 384 kts | 269° |
| 2026-05-05 14:50 | 40.93556 | 6.86947 | 36957 ft | 384 kts | 269° |
| 2026-05-05 14:50 | 40.93978 | 6.79893 | 36953 ft | 385 kts | 269° |
| 2026-05-05 14:51 | 40.94396 | 6.72830 | 36945 ft | 385 kts | 269° |
| 2026-05-05 14:51 | 40.94810 | 6.65762 | 36952 ft | 385 kts | 269° |
| 2026-05-05 14:52 | 40.95220 | 6.58684 | 36949 ft | 386 kts | 269° |
| 2026-05-05 14:52 | 40.95626 | 6.51599 | 36949 ft | 386 kts | 269° |
| 2026-05-05 14:53 | 40.96029 | 6.44501 | 36941 ft | 387 kts | 269° |
| 2026-05-05 14:53 | 40.96427 | 6.37397 | 36941 ft | 387 kts | 269° |
| 2026-05-05 14:54 | 40.96822 | 6.30290 | 36949 ft | 388 kts | 269° |
| 2026-05-05 14:54 | 40.97212 | 6.23172 | 36939 ft | 388 kts | 269° |
| 2026-05-05 14:55 | 40.97596 | 6.16098 | 36939 ft | 388 kts | 269° |
| 2026-05-05 14:55 | 40.97978 | 6.08975 | 36938 ft | 388 kts | 269° |
| 2026-05-05 14:56 | 40.98356 | 6.01850 | 36933 ft | 388 kts | 269° |
| 2026-05-05 14:56 | 40.98729 | 5.94712 | 36934 ft | 388 kts | 268° |
| 2026-05-05 14:57 | 40.99098 | 5.87589 | 36935 ft | 388 kts | 268° |
| 2026-05-05 14:57 | 40.99462 | 5.80473 | 36928 ft | 388 kts | 268° |
| 2026-05-05 14:58 | 40.99822 | 5.73349 | 36932 ft | 388 kts | 268° |
| 2026-05-05 14:58 | 41.00175 | 5.66269 | 36928 ft | 388 kts | 268° |
| 2026-05-05 14:59 | 41.00526 | 5.59145 | 36931 ft | 387 kts | 268° |
| 2026-05-05 14:59 | 41.00873 | 5.52028 | 36926 ft | 387 kts | 268° |
| 2026-05-05 15:00 | 41.01158 | 5.46110 | 36929 ft | 387 kts | 268° |
| 2026-05-05 15:00 | 41.01555 | 5.37783 | 36926 ft | 387 kts | 268° |
| 2026-05-05 15:01 | 41.01926 | 5.30660 | 36927 ft | 387 kts | 268° |
| 2026-05-05 15:01 | 41.02301 | 5.23589 | 36928 ft | 388 kts | 268° |
| 2026-05-05 15:02 | 41.02671 | 5.16465 | 36929 ft | 388 kts | 268° |
| 2026-05-05 15:02 | 41.03036 | 5.09327 | 36918 ft | 388 kts | 268° |
| 2026-05-05 15:03 | 41.03395 | 5.02202 | 36917 ft | 388 kts | 268° |
| 2026-05-05 15:03 | 41.03750 | 4.95068 | 36913 ft | 388 kts | 268° |
| 2026-05-05 15:04 | 41.04101 | 4.87928 | 36913 ft | 388 kts | 268° |
| 2026-05-05 15:04 | 41.04447 | 4.80792 | 36916 ft | 388 kts | 268° |
| 2026-05-05 15:05 | 41.05403 | 4.70137 | 36920 ft | 391 kts | 272° |
| 2026-05-05 15:06 | 41.06198 | 4.62999 | 36914 ft | 391 kts | 271° |
| 2026-05-05 15:06 | 41.06943 | 4.55859 | 36908 ft | 391 kts | 271° |
| 2026-05-05 15:07 | 41.07689 | 4.48713 | 36911 ft | 391 kts | 271° |
| 2026-05-05 15:07 | 41.08453 | 4.41566 | 36910 ft | 392 kts | 272° |
| 2026-05-05 15:08 | 41.09219 | 4.34407 | 36909 ft | 392 kts | 271° |
| 2026-05-05 15:08 | 41.09974 | 4.27292 | 36913 ft | 392 kts | 271° |
| 2026-05-05 15:09 | 41.10728 | 4.20129 | 36911 ft | 392 kts | 271° |
| 2026-05-05 15:09 | 41.11477 | 4.12963 | 36908 ft | 392 kts | 271° |
| 2026-05-05 15:10 | 41.12222 | 4.05792 | 36907 ft | 393 kts | 271° |
| 2026-05-05 15:10 | 41.12963 | 3.98614 | 36906 ft | 393 kts | 271° |
| 2026-05-05 15:11 | 41.13702 | 3.91420 | 36905 ft | 393 kts | 271° |
| 2026-05-05 15:11 | 41.14436 | 3.84229 | 36905 ft | 393 kts | 271° |
| 2026-05-05 15:12 | 41.15167 | 3.77024 | 36905 ft | 394 kts | 271° |
| 2026-05-05 15:12 | 41.15887 | 3.69815 | 36900 ft | 394 kts | 271° |
| 2026-05-05 15:13 | 41.16592 | 3.62646 | 36901 ft | 394 kts | 271° |
| 2026-05-05 15:13 | 41.17298 | 3.55440 | 36898 ft | 394 kts | 271° |
| 2026-05-05 15:14 | 41.18001 | 3.48224 | 36895 ft | 394 kts | 271° |
| 2026-05-05 15:14 | 41.18702 | 3.41011 | 36901 ft | 394 kts | 271° |
| 2026-05-05 15:15 | 41.19409 | 3.33801 | 36901 ft | 394 kts | 271° |
| 2026-05-05 15:15 | 41.20113 | 3.26587 | 36895 ft | 393 kts | 271° |
| 2026-05-05 15:16 | 41.20811 | 3.19380 | 36895 ft | 393 kts | 271° |
| 2026-05-05 15:16 | 41.21500 | 3.12185 | 36900 ft | 393 kts | 271° |
| 2026-05-05 15:17 | 41.22183 | 3.04980 | 36900 ft | 393 kts | 271° |
| 2026-05-05 15:17 | 41.22858 | 2.97821 | 36896 ft | 392 kts | 271° |
| 2026-05-05 15:18 | 41.23532 | 2.90623 | 36898 ft | 392 kts | 271° |
| 2026-05-05 15:18 | 41.24202 | 2.83422 | 36897 ft | 393 kts | 271° |
| 2026-05-05 15:19 | 41.24867 | 2.76220 | 36897 ft | 393 kts | 271° |
| 2026-05-05 15:19 | 41.25525 | 2.69054 | 36899 ft | 393 kts | 271° |
| 2026-05-05 15:20 | 41.26182 | 2.61837 | 36899 ft | 393 kts | 271° |
| 2026-05-05 15:20 | 41.26836 | 2.54609 | 36900 ft | 394 kts | 271° |
| 2026-05-05 15:21 | 41.27486 | 2.47374 | 36902 ft | 394 kts | 271° |
| 2026-05-05 15:21 | 41.28132 | 2.40132 | 36906 ft | 394 kts | 271° |
| 2026-05-05 15:22 | 41.28773 | 2.32889 | 36910 ft | 395 kts | 271° |
| 2026-05-05 15:22 | 41.29411 | 2.25633 | 36913 ft | 395 kts | 271° |
| 2026-05-05 15:23 | 41.29939 | 2.19590 | 36913 ft | 396 kts | 271° |
| 2026-05-05 15:23 | 41.30525 | 2.12319 | 36910 ft | 394 kts | 267° |
| 2026-05-05 15:24 | 41.29975 | 2.03996 | 36922 ft | 388 kts | 257° |
| 2026-05-05 15:24 | 41.29268 | 1.98052 | 36917 ft | 388 kts | 258° |
| 2026-05-05 15:25 | 41.28442 | 1.90952 | 36912 ft | 389 kts | 258° |
| 2026-05-05 15:25 | 41.27623 | 1.83840 | 36916 ft | 390 kts | 258° |
| 2026-05-05 15:26 | 41.26806 | 1.76746 | 36904 ft | 391 kts | 258° |
| 2026-05-05 15:26 | 41.25975 | 1.69590 | 36902 ft | 392 kts | 258° |
| 2026-05-05 15:27 | 41.25130 | 1.62436 | 36903 ft | 392 kts | 257° |
| 2026-05-05 15:27 | 41.24276 | 1.55271 | 36901 ft | 393 kts | 257° |
| 2026-05-05 15:28 | 41.23418 | 1.48100 | 36902 ft | 392 kts | 257° |
| 2026-05-05 15:28 | 41.22558 | 1.40940 | 36901 ft | 392 kts | 257° |
| 2026-05-05 15:29 | 41.21693 | 1.33782 | 36904 ft | 392 kts | 257° |
| 2026-05-05 15:29 | 41.20826 | 1.26633 | 36917 ft | 392 kts | 257° |
| 2026-05-05 15:30 | 41.19954 | 1.19487 | 36910 ft | 392 kts | 257° |
| 2026-05-05 15:30 | 41.19079 | 1.12351 | 36913 ft | 391 kts | 257° |
| 2026-05-05 15:31 | 41.18203 | 1.05219 | 36927 ft | 391 kts | 257° |
| 2026-05-05 15:31 | 41.17323 | 0.98082 | 36909 ft | 392 kts | 257° |
| 2026-05-05 15:32 | 41.16439 | 0.90946 | 36910 ft | 392 kts | 257° |
| 2026-05-05 15:32 | 41.15550 | 0.83815 | 36907 ft | 392 kts | 257° |
| 2026-05-05 15:33 | 41.14657 | 0.76679 | 36907 ft | 392 kts | 257° |
| 2026-05-05 15:33 | 41.13764 | 0.69583 | 36914 ft | 392 kts | 257° |
| 2026-05-05 15:34 | 41.12864 | 0.62436 | 36903 ft | 393 kts | 257° |
| 2026-05-05 15:34 | 41.11968 | 0.55281 | 36912 ft | 393 kts | 257° |
| 2026-05-05 15:35 | 41.11066 | 0.48125 | 36907 ft | 393 kts | 257° |
| 2026-05-05 15:35 | 41.10144 | 0.40968 | 36912 ft | 394 kts | 257° |
| 2026-05-05 15:36 | 41.09208 | 0.33806 | 36913 ft | 394 kts | 257° |
| 2026-05-05 15:36 | 41.08268 | 0.26638 | 36913 ft | 395 kts | 257° |
| 2026-05-05 15:37 | 41.07324 | 0.19458 | 36918 ft | 396 kts | 257° |
| 2026-05-05 15:37 | 41.06378 | 0.12302 | 36916 ft | 396 kts | 257° |
| 2026-05-05 15:38 | 41.05423 | 0.05105 | 36915 ft | 397 kts | 257° |
| 2026-05-05 15:38 | 41.04458 | -0.02125 | 36919 ft | 398 kts | 257° |
| 2026-05-05 15:39 | 41.03489 | -0.09353 | 36919 ft | 399 kts | 257° |
| 2026-05-05 15:39 | 41.02514 | -0.16588 | 36924 ft | 399 kts | 257° |
| 2026-05-05 15:40 | 41.01533 | -0.23841 | 36922 ft | 400 kts | 257° |
| 2026-05-05 15:40 | 41.00286 | -0.31002 | 36915 ft | 398 kts | 249° |
| 2026-05-05 15:41 | 40.98406 | -0.37855 | 36927 ft | 399 kts | 249° |
| 2026-05-05 15:41 | 40.96511 | -0.44773 | 36921 ft | 400 kts | 249° |
| 2026-05-05 15:42 | 40.94628 | -0.51699 | 36922 ft | 400 kts | 250° |
| 2026-05-05 15:42 | 40.92744 | -0.58630 | 36925 ft | 401 kts | 250° |
| 2026-05-05 15:43 | 40.90853 | -0.65573 | 36922 ft | 401 kts | 250° |
| 2026-05-05 15:43 | 40.88959 | -0.72513 | 36924 ft | 402 kts | 250° |
| 2026-05-05 15:44 | 40.87067 | -0.79415 | 36927 ft | 402 kts | 250° |
| 2026-05-05 15:44 | 40.85150 | -0.86353 | 36926 ft | 402 kts | 250° |
| 2026-05-05 15:45 | 40.83227 | -0.93276 | 36927 ft | 401 kts | 250° |
| 2026-05-05 15:45 | 40.81302 | -1.00193 | 36933 ft | 401 kts | 250° |
| 2026-05-05 15:46 | 40.79382 | -1.07083 | 36936 ft | 400 kts | 250° |
| 2026-05-05 15:46 | 40.77460 | -1.13959 | 36947 ft | 398 kts | 250° |
| 2026-05-05 15:47 | 40.75542 | -1.20809 | 36946 ft | 398 kts | 250° |
| 2026-05-05 15:47 | 40.73618 | -1.27654 | 36942 ft | 398 kts | 250° |
| 2026-05-05 15:48 | 40.71692 | -1.34505 | 36951 ft | 398 kts | 250° |
| 2026-05-05 15:48 | 40.69780 | -1.41296 | 36948 ft | 398 kts | 250° |
| 2026-05-05 15:49 | 40.67851 | -1.48131 | 36947 ft | 398 kts | 250° |
| 2026-05-05 15:49 | 40.65919 | -1.54960 | 36952 ft | 397 kts | 250° |
| 2026-05-05 15:50 | 40.63983 | -1.61782 | 36964 ft | 398 kts | 250° |
| 2026-05-05 15:50 | 40.62041 | -1.68606 | 36963 ft | 398 kts | 250° |
| 2026-05-05 15:51 | 40.60095 | -1.75431 | 36961 ft | 398 kts | 250° |
| 2026-05-05 15:51 | 40.58145 | -1.82248 | 36975 ft | 398 kts | 250° |
| 2026-05-05 15:52 | 40.56191 | -1.89065 | 36969 ft | 398 kts | 250° |
| 2026-05-05 15:52 | 40.54243 | -1.95844 | 36979 ft | 399 kts | 250° |
| 2026-05-05 15:53 | 40.52274 | -2.02678 | 36978 ft | 400 kts | 250° |
| 2026-05-05 15:53 | 40.50300 | -2.09510 | 36974 ft | 400 kts | 250° |
| 2026-05-05 15:54 | 40.48317 | -2.16362 | 36977 ft | 401 kts | 250° |
| 2026-05-05 15:54 | 40.46331 | -2.23212 | 36976 ft | 402 kts | 250° |
| 2026-05-05 15:55 | 40.44339 | -2.30069 | 36972 ft | 402 kts | 250° |
| 2026-05-05 15:55 | 40.42343 | -2.36919 | 36963 ft | 401 kts | 250° |
| 2026-05-05 15:56 | 40.40345 | -2.43763 | 36960 ft | 401 kts | 250° |
| 2026-05-05 15:56 | 40.38360 | -2.50545 | 36951 ft | 400 kts | 250° |
| 2026-05-05 15:57 | 40.36522 | -2.57417 | 36960 ft | 398 kts | 255° |
| 2026-05-05 15:57 | 40.35019 | -2.64402 | 36947 ft | 398 kts | 255° |
| 2026-05-05 15:58 | 40.33524 | -2.71387 | 36943 ft | 398 kts | 255° |
| 2026-05-05 15:58 | 40.32012 | -2.78351 | 36943 ft | 397 kts | 255° |
| 2026-05-05 15:59 | 40.30488 | -2.85316 | 36942 ft | 397 kts | 255° |
| 2026-05-05 15:59 | 40.28960 | -2.92274 | 36939 ft | 397 kts | 255° |
| 2026-05-05 16:00 | 40.27429 | -2.99232 | 36941 ft | 397 kts | 255° |
| 2026-05-05 16:00 | 40.25894 | -3.06180 | 36939 ft | 397 kts | 255° |
| 2026-05-05 16:01 | 40.24354 | -3.13120 | 36945 ft | 397 kts | 255° |
| 2026-05-05 16:01 | 40.22809 | -3.20059 | 36957 ft | 397 kts | 255° |
| 2026-05-05 16:02 | 40.21267 | -3.26992 | 36956 ft | 397 kts | 255° |
| 2026-05-05 16:02 | 40.19735 | -3.33891 | 36957 ft | 397 kts | 255° |
| 2026-05-05 16:03 | 40.18188 | -3.40838 | 36966 ft | 397 kts | 256° |
| 2026-05-05 16:03 | 40.16637 | -3.47782 | 36965 ft | 398 kts | 256° |
| 2026-05-05 16:04 | 40.15078 | -3.54741 | 36962 ft | 398 kts | 256° |
| 2026-05-05 16:04 | 40.13515 | -3.61692 | 36965 ft | 398 kts | 255° |
| 2026-05-05 16:05 | 40.11958 | -3.68600 | 36967 ft | 398 kts | 256° |
| 2026-05-05 16:05 | 40.10385 | -3.75535 | 36960 ft | 398 kts | 255° |
| 2026-05-05 16:06 | 40.08794 | -3.82467 | 36963 ft | 398 kts | 255° |
| 2026-05-05 16:06 | 40.07200 | -3.89388 | 36958 ft | 398 kts | 255° |
| 2026-05-05 16:07 | 40.05603 | -3.96309 | 36965 ft | 397 kts | 255° |
| 2026-05-05 16:07 | 40.04005 | -4.03216 | 36963 ft | 397 kts | 255° |
| 2026-05-05 16:08 | 40.02404 | -4.10121 | 36968 ft | 397 kts | 255° |
| 2026-05-05 16:08 | 40.00800 | -4.17015 | 36960 ft | 397 kts | 255° |
| 2026-05-05 16:09 | 39.99194 | -4.23899 | 36963 ft | 396 kts | 255° |
| 2026-05-05 16:09 | 39.97596 | -4.30728 | 36959 ft | 396 kts | 255° |
| 2026-05-05 16:10 | 39.96053 | -4.37621 | 36958 ft | 395 kts | 257° |
| 2026-05-05 16:10 | 39.94926 | -4.43396 | 36958 ft | 395 kts | 257° |
| 2026-05-05 16:11 | 39.93563 | -4.50338 | 36960 ft | 395 kts | 257° |
| 2026-05-05 16:12 | 39.90755 | -4.64217 | 36955 ft | 396 kts | 257° |
| 2026-05-05 16:13 | 39.87193 | -4.81555 | 36963 ft | 397 kts | 257° |
| 2026-05-05 16:13 | 39.85760 | -4.88497 | 36951 ft | 397 kts | 256° |
| 2026-05-05 16:14 | 39.82886 | -5.02360 | 36952 ft | 398 kts | 256° |
| 2026-05-05 16:15 | 39.79986 | -5.16256 | 36955 ft | 398 kts | 256° |
| 2026-05-05 16:16 | 39.77070 | -5.30143 | 36957 ft | 398 kts | 256° |
| 2026-05-05 16:17 | 39.74870 | -5.40530 | 36952 ft | 397 kts | 256° |
| 2026-05-05 16:18 | 39.72663 | -5.50900 | 36953 ft | 397 kts | 256° |
| 2026-05-05 16:19 | 39.70454 | -5.61236 | 36958 ft | 396 kts | 256° |
| 2026-05-05 16:19 | 39.68234 | -5.71576 | 36965 ft | 396 kts | 256° |
| 2026-05-05 16:20 | 39.65269 | -5.85307 | 36959 ft | 396 kts | 256° |
| 2026-05-05 16:22 | 39.61528 | -6.02513 | 36959 ft | 396 kts | 256° |
| 2026-05-05 16:23 | 39.58516 | -6.16268 | 36961 ft | 396 kts | 256° |
| 2026-05-05 16:23 | 39.56246 | -6.26579 | 36962 ft | 397 kts | 256° |
| 2026-05-05 16:24 | 39.54739 | -6.33405 | 36964 ft | 397 kts | 255° |
| 2026-05-05 16:25 | 39.52391 | -6.43687 | 36960 ft | 398 kts | 251° |
| 2026-05-05 16:25 | 39.48740 | -6.53374 | 36968 ft | 399 kts | 246° |
| 2026-05-05 16:26 | 39.43755 | -6.66215 | 36974 ft | 399 kts | 246° |
| 2026-05-05 16:27 | 39.41270 | -6.72641 | 36968 ft | 399 kts | 246° |
| 2026-05-05 16:27 | 39.38797 | -6.79024 | 36972 ft | 399 kts | 246° |
| 2026-05-05 16:28 | 39.36305 | -6.85444 | 36973 ft | 399 kts | 246° |
| 2026-05-05 16:28 | 39.33816 | -6.91844 | 36978 ft | 399 kts | 246° |
| 2026-05-05 16:29 | 39.31321 | -6.98246 | 36978 ft | 399 kts | 246° |
| 2026-05-05 16:29 | 39.28852 | -7.04560 | 36957 ft | 382 kts | 246° |
| 2026-05-05 16:30 | 39.27674 | -7.07564 | 36963 ft | 368 kts | 246° |
| 2026-05-05 16:30 | 39.26539 | -7.10462 | 36962 ft | 355 kts | 246° |
| 2026-05-05 16:30 | 39.25446 | -7.13250 | 36959 ft | 341 kts | 246° |
| 2026-05-05 16:30 | 39.24392 | -7.15944 | 36980 ft | 334 kts | 246° |
| 2026-05-05 16:31 | 39.23341 | -7.18625 | 36766 ft | 335 kts | 246° |
| 2026-05-05 16:31 | 39.22292 | -7.21297 | 36338 ft | 333 kts | 246° |
| 2026-05-05 16:31 | 39.21228 | -7.23985 | 35540 ft | 343 kts | 246° |
| 2026-05-05 16:31 | 39.20118 | -7.26738 | 34580 ft | 357 kts | 246° |
| 2026-05-05 16:32 | 39.18943 | -7.29631 | 33533 ft | 371 kts | 246° |
| 2026-05-05 16:32 | 39.17718 | -7.32638 | 32379 ft | 384 kts | 246° |
| 2026-05-05 16:32 | 39.16457 | -7.35732 | 31284 ft | 395 kts | 246° |
| 2026-05-05 16:32 | 39.15160 | -7.38908 | 30273 ft | 404 kts | 245° |
| 2026-05-05 16:33 | 39.13843 | -7.42134 | 29197 ft | 410 kts | 245° |
| 2026-05-05 16:33 | 39.12510 | -7.45394 | 28342 ft | 410 kts | 245° |
| 2026-05-05 16:33 | 39.11189 | -7.48621 | 27776 ft | 404 kts | 245° |
| 2026-05-05 16:33 | 39.09886 | -7.51802 | 27207 ft | 399 kts | 245° |
| 2026-05-05 16:34 | 39.08598 | -7.54950 | 26565 ft | 396 kts | 245° |
| 2026-05-05 16:34 | 39.07318 | -7.58079 | 25893 ft | 394 kts | 245° |
| 2026-05-05 16:34 | 39.06060 | -7.61152 | 25271 ft | 392 kts | 245° |
| 2026-05-05 16:34 | 39.04800 | -7.64219 | 25095 ft | 381 kts | 245° |
| 2026-05-05 16:35 | 39.03602 | -7.67190 | 25016 ft | 367 kts | 246° |
| 2026-05-05 16:35 | 39.02472 | -7.70129 | 24478 ft | 367 kts | 247° |
| 2026-05-05 16:35 | 39.01366 | -7.73060 | 24094 ft | 364 kts | 247° |
| 2026-05-05 16:35 | 39.00263 | -7.75988 | 23757 ft | 364 kts | 247° |
| 2026-05-05 16:36 | 38.99150 | -7.78931 | 23378 ft | 368 kts | 247° |
| 2026-05-05 16:36 | 38.98029 | -7.81881 | 22989 ft | 367 kts | 247° |
| 2026-05-05 16:36 | 38.96906 | -7.84821 | 22619 ft | 365 kts | 246° |
| 2026-05-05 16:36 | 38.95790 | -7.87734 | 22269 ft | 363 kts | 246° |
| 2026-05-05 16:37 | 38.94678 | -7.90635 | 21925 ft | 361 kts | 246° |
| 2026-05-05 16:37 | 38.93574 | -7.93513 | 21593 ft | 356 kts | 246° |
| 2026-05-05 16:37 | 38.92489 | -7.96336 | 21259 ft | 350 kts | 246° |
| 2026-05-05 16:37 | 38.91418 | -7.99120 | 20930 ft | 345 kts | 246° |
| 2026-05-05 16:38 | 38.90330 | -8.01835 | 20613 ft | 341 kts | 242° |
| 2026-05-05 16:38 | 38.88928 | -8.04281 | 20310 ft | 338 kts | 234° |
| 2026-05-05 16:38 | 38.87425 | -8.06582 | 19993 ft | 334 kts | 233° |
| 2026-05-05 16:38 | 38.85917 | -8.08836 | 19685 ft | 330 kts | 233° |
| 2026-05-05 16:39 | 38.84429 | -8.11064 | 19383 ft | 327 kts | 233° |
| 2026-05-05 16:39 | 38.82985 | -8.13245 | 19082 ft | 323 kts | 233° |
| 2026-05-05 16:39 | 38.81542 | -8.15438 | 18787 ft | 320 kts | 233° |
| 2026-05-05 16:39 | 38.80122 | -8.17608 | 18488 ft | 317 kts | 233° |
| 2026-05-05 16:40 | 38.78710 | -8.19772 | 18171 ft | 314 kts | 233° |
| 2026-05-05 16:40 | 38.77316 | -8.21912 | 17853 ft | 311 kts | 234° |
| 2026-05-05 16:40 | 38.75936 | -8.24031 | 17543 ft | 308 kts | 234° |
| 2026-05-05 16:40 | 38.74567 | -8.26133 | 17249 ft | 306 kts | 234° |
| 2026-05-05 16:41 | 38.73210 | -8.28217 | 16963 ft | 303 kts | 234° |
| 2026-05-05 16:41 | 38.71859 | -8.30291 | 16682 ft | 303 kts | 234° |
| 2026-05-05 16:41 | 38.70503 | -8.32372 | 16399 ft | 304 kts | 234° |
| 2026-05-05 16:41 | 38.69146 | -8.34453 | 16122 ft | 305 kts | 234° |
| 2026-05-05 16:42 | 38.67783 | -8.36542 | 15831 ft | 306 kts | 234° |
| 2026-05-05 16:42 | 38.66434 | -8.38608 | 15545 ft | 306 kts | 234° |
| 2026-05-05 16:42 | 38.65049 | -8.40728 | 15258 ft | 307 kts | 234° |
| 2026-05-05 16:42 | 38.63693 | -8.42802 | 14977 ft | 308 kts | 234° |
| 2026-05-05 16:43 | 38.62315 | -8.44908 | 14690 ft | 309 kts | 234° |
| 2026-05-05 16:43 | 38.60929 | -8.47024 | 14395 ft | 309 kts | 234° |
| 2026-05-05 16:43 | 38.59555 | -8.49122 | 14101 ft | 307 kts | 234° |
| 2026-05-05 16:43 | 38.58189 | -8.51204 | 13816 ft | 304 kts | 234° |
| 2026-05-05 16:44 | 38.56831 | -8.53274 | 13486 ft | 302 kts | 234° |
| 2026-05-05 16:44 | 38.55487 | -8.55320 | 13187 ft | 299 kts | 234° |
| 2026-05-05 16:44 | 38.54152 | -8.57339 | 12901 ft | 296 kts | 233° |
| 2026-05-05 16:44 | 38.52811 | -8.59318 | 12624 ft | 293 kts | 233° |
| 2026-05-05 16:45 | 38.51478 | -8.61270 | 12347 ft | 290 kts | 233° |
| 2026-05-05 16:45 | 38.50157 | -8.63203 | 12080 ft | 287 kts | 233° |
| 2026-05-05 16:45 | 38.48850 | -8.65115 | 11797 ft | 284 kts | 233° |
| 2026-05-05 16:45 | 38.47560 | -8.67005 | 11547 ft | 281 kts | 233° |
| 2026-05-05 16:46 | 38.46280 | -8.68881 | 11290 ft | 279 kts | 233° |
| 2026-05-05 16:46 | 38.45024 | -8.70721 | 11019 ft | 277 kts | 233° |
| 2026-05-05 16:46 | 38.43763 | -8.72567 | 10771 ft | 275 kts | 233° |
| 2026-05-05 16:46 | 38.42508 | -8.74406 | 10505 ft | 274 kts | 233° |
| 2026-05-05 16:47 | 38.41260 | -8.76232 | 10251 ft | 272 kts | 233° |
| 2026-05-05 16:47 | 38.40021 | -8.78045 | 10006 ft | 270 kts | 233° |
| 2026-05-05 16:47 | 38.38789 | -8.79850 | 9734 ft | 270 kts | 232° |
| 2026-05-05 16:47 | 38.37555 | -8.81652 | 9450 ft | 269 kts | 232° |
| 2026-05-05 16:48 | 38.36329 | -8.83441 | 9188 ft | 267 kts | 232° |
| 2026-05-05 16:48 | 38.35108 | -8.85221 | 8939 ft | 265 kts | 233° |
| 2026-05-05 16:48 | 38.33978 | -8.87052 | 8671 ft | 260 kts | 246° |
| 2026-05-05 16:48 | 38.33573 | -8.89205 | 8475 ft | 246 kts | 276° |
| 2026-05-05 16:49 | 38.33964 | -8.91273 | 8242 ft | 239 kts | 298° |
| 2026-05-05 16:49 | 38.34913 | -8.92986 | 8033 ft | 237 kts | 315° |
| 2026-05-05 16:49 | 38.36099 | -8.94462 | 7809 ft | 240 kts | 318° |
| 2026-05-05 16:49 | 38.37303 | -8.95899 | 7571 ft | 240 kts | 318° |
| 2026-05-05 16:50 | 38.38509 | -8.97373 | 7337 ft | 239 kts | 312° |
| 2026-05-05 16:50 | 38.39258 | -8.99260 | 7135 ft | 243 kts | 283° |
| 2026-05-05 16:50 | 38.39210 | -9.01413 | 7105 ft | 247 kts | 258° |
| 2026-05-05 16:50 | 38.38494 | -9.03410 | 7074 ft | 249 kts | 242° |
| 2026-05-05 16:51 | 38.37541 | -9.05246 | 7071 ft | 248 kts | 240° |
| 2026-05-05 16:51 | 38.36574 | -9.07051 | 7065 ft | 247 kts | 240° |
| 2026-05-05 16:51 | 38.35609 | -9.08866 | 7069 ft | 248 kts | 240° |
| 2026-05-05 16:51 | 38.34686 | -9.10725 | 7063 ft | 246 kts | 251° |
| 2026-05-05 16:52 | 38.34278 | -9.12795 | 7100 ft | 240 kts | 264° |
| 2026-05-05 16:52 | 38.33983 | -9.14901 | 7070 ft | 242 kts | 263° |
| 2026-05-05 16:52 | 38.33670 | -9.17006 | 7083 ft | 242 kts | 264° |
| 2026-05-05 16:52 | 38.33351 | -9.19114 | 7079 ft | 242 kts | 263° |
| 2026-05-05 16:53 | 38.33028 | -9.21221 | 7073 ft | 242 kts | 263° |
| 2026-05-05 16:53 | 38.32723 | -9.23333 | 7072 ft | 240 kts | 270° |
| 2026-05-05 16:53 | 38.32905 | -9.25398 | 7084 ft | 233 kts | 287° |
| 2026-05-05 16:53 | 38.33251 | -9.27422 | 7077 ft | 234 kts | 285° |
| 2026-05-05 16:54 | 38.33471 | -9.28766 | 7079 ft | 234 kts | 285° |
| 2026-05-05 16:54 | 38.33797 | -9.30797 | 7081 ft | 234 kts | 285° |
| 2026-05-05 16:54 | 38.34122 | -9.32833 | 7080 ft | 234 kts | 284° |
| 2026-05-05 16:54 | 38.34447 | -9.34872 | 7079 ft | 234 kts | 285° |
| 2026-05-05 16:55 | 38.34865 | -9.36867 | 7070 ft | 231 kts | 300° |
| 2026-05-05 16:55 | 38.36337 | -9.38660 | 7079 ft | 220 kts | 338° |
| 2026-05-05 16:55 | 38.37800 | -9.39019 | 7074 ft | 213 kts | 1° |
| 2026-05-05 16:55 | 38.39225 | -9.38598 | 6941 ft | 212 kts | 22° |
| 2026-05-05 16:56 | 38.40112 | -9.38000 | 6702 ft | 216 kts | 26° |
| 2026-05-05 16:56 | 38.41415 | -9.37039 | 6332 ft | 222 kts | 27° |
| 2026-05-05 16:56 | 38.42754 | -9.36029 | 5983 ft | 226 kts | 27° |
| 2026-05-05 16:56 | 38.44120 | -9.35002 | 5651 ft | 228 kts | 27° |
| 2026-05-05 16:57 | 38.45475 | -9.33980 | 5448 ft | 225 kts | 27° |
| 2026-05-05 16:57 | 38.46821 | -9.32969 | 5175 ft | 225 kts | 28° |
| 2026-05-05 16:57 | 38.48156 | -9.31968 | 5018 ft | 221 kts | 27° |
| 2026-05-05 16:57 | 38.49469 | -9.30985 | 4879 ft | 216 kts | 27° |
| 2026-05-05 16:58 | 38.50752 | -9.30026 | 4748 ft | 213 kts | 27° |
| 2026-05-05 16:58 | 38.52039 | -9.29065 | 4658 ft | 215 kts | 27° |
| 2026-05-05 16:58 | 38.53344 | -9.28093 | 4532 ft | 218 kts | 27° |
| 2026-05-05 16:58 | 38.54633 | -9.27128 | 4400 ft | 212 kts | 27° |
| 2026-05-05 16:59 | 38.55885 | -9.26190 | 4285 ft | 205 kts | 26° |
| 2026-05-05 16:59 | 38.57102 | -9.25280 | 4170 ft | 199 kts | 26° |
| 2026-05-05 16:59 | 38.58309 | -9.24396 | 4060 ft | 200 kts | 24° |
| 2026-05-05 16:59 | 38.59525 | -9.23627 | 4007 ft | 191 kts | 21° |
| 2026-05-05 17:00 | 38.60738 | -9.22944 | 3768 ft | 189 kts | 19° |
| 2026-05-05 17:00 | 38.61920 | -9.22302 | 3540 ft | 184 kts | 19° |
| 2026-05-05 17:00 | 38.63102 | -9.21666 | 3273 ft | 180 kts | 18° |
| 2026-05-05 17:00 | 38.64226 | -9.21063 | 3037 ft | 169 kts | 18° |
| 2026-05-05 17:01 | 38.65271 | -9.20499 | 2821 ft | 155 kts | 17° |
| 2026-05-05 17:01 | 38.66205 | -9.19996 | 2600 ft | 141 kts | 17° |
| 2026-05-05 17:01 | 38.67106 | -9.19513 | 2424 ft | 139 kts | 18° |
| 2026-05-05 17:01 | 38.68008 | -9.19030 | 2237 ft | 141 kts | 18° |
| 2026-05-05 17:02 | 38.68899 | -9.18552 | 2037 ft | 137 kts | 17° |
| 2026-05-05 17:02 | 38.69783 | -9.18077 | 1861 ft | 138 kts | 15° |
| 2026-05-05 17:02 | 38.70674 | -9.17599 | 1659 ft | 140 kts | 16° |
| 2026-05-05 17:02 | 38.71562 | -9.17119 | 1488 ft | 137 kts | 16° |
| 2026-05-05 17:03 | 38.72466 | -9.16637 | 1282 ft | 143 kts | 15° |
| 2026-05-05 17:03 | 38.73393 | -9.16150 | 1098 ft | 143 kts | 17° |
| 2026-05-05 17:03 | 38.74304 | -9.15660 | 923 ft | 142 kts | 19° |
| 2026-05-05 17:03 | 38.75210 | -9.15151 | 737 ft | 143 kts | 16° |
| 2026-05-05 17:04 | 38.76148 | -9.14659 | 492 ft | 146 kts | 18° |
| 2026-05-05 17:04 | 38.77072 | -9.14156 | 360 ft | 139 kts | 16° |
| 2026-05-05 17:04 | 38.77854 | -9.13750 | 357 ft | 100 kts | 22° |
| 2026-05-05 17:04 | 38.78350 | -9.13476 | 356 ft | 55 kts | 22° |
| 2026-05-05 17:05 | 38.78536 | -9.13344 | 349 ft | 18 kts | 61° |
| 2026-05-05 17:05 | 38.78517 | -9.13251 | 351 ft | 10 kts | 136° |
| 2026-05-05 17:05 | 38.78452 | -9.13222 | 353 ft | 10 kts | 171° |
| 2026-05-05 17:05 | 38.78385 | -9.13232 | 355 ft | 10 kts | 200° |
| 2026-05-05 17:06 | 38.78323 | -9.13263 | 356 ft | 9 kts | 202° |
| 2026-05-05 17:06 | 38.78263 | -9.13295 | 358 ft | 9 kts | 202° |
| 2026-05-05 17:06 | 38.78202 | -9.13327 | 352 ft | 10 kts | 202° |
| 2026-05-05 17:06 | 38.78128 | -9.13365 | 359 ft | 12 kts | 202° |
| 2026-05-05 17:07 | 38.78053 | -9.13404 | 354 ft | 11 kts | 199° |
| 2026-05-05 17:07 | 38.77976 | -9.13403 | 354 ft | 11 kts | 167° |
| 2026-05-05 17:07 | 38.77901 | -9.13383 | 351 ft | 11 kts | 168° |
| 2026-05-05 17:07 | 38.77828 | -9.13364 | 351 ft | 10 kts | 168° |
| 2026-05-05 17:08 | 38.77757 | -9.13345 | 353 ft | 11 kts | 168° |
| 2026-05-05 17:08 | 38.77686 | -9.13326 | 354 ft | 10 kts | 168° |
| 2026-05-05 17:08 | 38.77616 | -9.13319 | 359 ft | 10 kts | 186° |
| 2026-05-05 17:08 | 38.77549 | -9.13312 | 351 ft | 10 kts | 169° |
| 2026-05-05 17:09 | 38.77482 | -9.13293 | 356 ft | 10 kts | 167° |
| 2026-05-05 17:09 | 38.77424 | -9.13276 | 350 ft | 6 kts | 163° |
| 2026-05-05 17:09 | 38.77415 | -9.13231 | 354 ft | 6 kts | 75° |
| 2026-05-05 17:09 | 38.77425 | -9.13179 | 357 ft | 5 kts | 77° |
| 2026-05-05 17:10 | 38.77429 | -9.13153 | 350 ft | 2 kts | 78° |
| 2026-05-05 17:10 | 38.77429 | -9.13152 | 350 ft | 0 kts | 78° |